Latest Weather Observations for Urandangi

IDQ60801

Issued at 5:32 pm EST Saturday 27 May 2017 (issued every 30 minutes, with the page automatically refreshed every 10 minutes)

About weather observations | Map of weather stations | Latest weather observations for QLD | Other Formats
Station Details ID: 037058 Name: URANDANGI AERODROME Lat: -21.60 Lon: 138.37 Height: 178.6 m
Data from the previous 72 hours. | See also: Recent months at Urandangi
Date/Time
EST
Temp
°C
App
Temp
°C
Dew
Point
°C
Rel
Hum
%
Delta-T
°C
Wind Press
QNH
hPa
Press
MSL
hPa
Rain since
9am
mm
Dir  Spd
km/h
Gust
km/h
Spd
kts
Gust
kts
27/05:30pm 28.7 24.9 -0.5 15 13.8 SE 9 15 5 8 1016.0 1015.5 0.0
27/05:00pm 29.5 25.2 -1.8 13 14.5 SE 11 19 6 10 1015.7 1015.2 0.0
27/04:30pm 29.8 25.1 -1.5 13 14.7 SE 13 20 7 11 1015.7 1015.2 0.0
27/04:00pm 30.1 26.1 -2.4 12 15.0 SE 9 15 5 8 1015.7 1015.2 0.0
27/03:30pm 30.1 25.3 -2.4 12 15.0 ESE 13 19 7 10 1015.8 1015.3 0.0
27/03:00pm 30.4 26.3 -3.3 11 15.4 SSE 9 17 5 9 1015.8 1015.3 0.0
27/02:30pm 30.3 25.4 -3.4 11 15.3 SE 13 24 7 13 1016.1 1015.6 0.0
27/02:00pm 30.3 25.8 -3.4 11 15.3 ESE 11 24 6 13 1016.4 1015.9 0.0
27/01:30pm 29.8 25.0 -2.6 12 14.9 ESE 13 24 7 13 1016.8 1016.3 0.0
27/01:00pm 28.7 24.4 -1.4 14 14.0 SE 11 22 6 12 1017.2 1016.7 0.0
27/12:30pm 27.8 23.2 -1.2 15 13.5 SE 13 20 7 11 1017.7 1017.2 0.0
27/12:00pm 27.3 22.6 -1.6 15 13.2 ESE 13 20 7 11 1018.2 1017.6 0.0
27/11:30am 26.6 21.9 -2.1 15 13.0 SE 13 20 7 11 1018.7 1018.2 0.0
27/11:00am 25.6 21.0 -1.2 17 12.2 SE 13 20 7 11 1019.3 1018.8 0.0
27/10:30am 24.6 20.1 -0.5 19 11.5 ESE 13 19 7 10 1019.3 1018.8 0.0
27/10:00am 23.3 18.8 -0.2 21 10.7 ESE 13 19 7 10 1019.4 1018.9 0.0
27/09:30am 21.1 17.3 -0.8 23 9.7 ESE 9 15 5 8 1019.4 1018.9 0.0
27/09:00am 18.5 15.1 -1.9 25 8.6 ESE 6 9 3 5 1019.3 1018.8 0.0
27/08:30am 13.7 11.3 -3.5 30 6.7 CALM 0 0 0 0 1019.1 1018.6 0.0
27/08:00am 10.4 7.1 -4.4 35 5.4 SSE 4 6 2 3 1018.9 1018.4 0.0
27/07:30am 7.9 4.4 -5.9 37 4.7 ESE 4 6 2 3 1018.6 1018.1 0.0
27/07:00am 7.9 4.0 -6.2 36 4.8 E 6 6 3 3 1018.2 1017.6 0.0
27/06:30am 7.9 3.8 -6.6 35 4.9 E 7 9 4 5 1017.7 1017.2 0.0
27/06:00am 9.4 5.9 -6.0 33 5.4 ENE 4 4 2 2 1017.6 1017.1 0.0
27/05:30am 10.0 6.3 -4.7 35 5.3 E 6 6 3 3 1017.3 1016.8 0.0
27/05:00am 9.6 5.9 -4.7 36 5.2 SE 6 6 3 3 1017.3 1016.8 0.0
27/04:30am 10.9 7.0 -4.3 34 5.6 E 7 7 4 4 1017.2 1016.7 0.0
27/04:00am 10.6 6.9 -4.6 34 5.6 SSE 6 7 3 4 1017.2 1016.7 0.0
27/03:30am 10.2 6.4 -5.7 32 5.7 SSE 6 6 3 3 1017.3 1016.8 0.0
27/03:00am 10.2 5.8 -5.7 32 5.6 SSE 9 11 5 6 1017.4 1016.9 0.0
27/02:30am 12.1 9.2 -4.5 31 6.2 SE 2 4 1 2 1017.7 1017.2 0.0
27/02:00am 11.9 7.9 -5.5 29 6.3 SE 7 7 4 4 1017.9 1017.3 0.0
27/01:30am 12.9 9.0 -4.2 30 6.5 ESE 7 7 4 4 1018.1 1017.5 0.0
27/01:00am 13.0 9.1 -5.1 28 6.7 ESE 7 9 4 5 1018.2 1017.6 0.0
27/12:30am 13.7 10.0 -4.5 28 6.9 ESE 6 7 3 4 1018.3 1017.7 0.0
27/12:00am 13.0 9.0 -5.5 27 6.8 SE 7 9 4 5 1018.5 1017.9 0.0
 
Date/Time
EST
Temp
°C
App
Temp
°C
Dew
Point
°C
Rel
Hum
%
Delta-T
°C
Wind Press
QNH
hPa
Press
MSL
hPa
Rain since
9am
mm
Dir  Spd
km/h
Gust
km/h
Spd
kts
Gust
kts
26/11:30pm 14.2 10.5 -5.0 26 7.3 ESE 6 7 3 4 1018.7 1018.2 0.0
26/11:00pm 14.4 10.5 -4.8 26 7.3 SSE 7 9 4 5 1018.6 1018.1 0.0
26/10:30pm 15.0 11.1 -4.3 26 7.5 SSE 7 7 4 4 1018.8 1018.3 0.0
26/10:00pm 15.4 11.7 -5.0 24 7.8 SSE 6 7 3 4 1018.8 1018.3 0.0
26/09:30pm 16.3 12.4 -4.3 24 8.1 SSE 7 9 4 5 1018.7 1018.2 0.0
26/09:00pm 16.3 12.4 -4.8 23 8.2 SSE 7 9 4 5 1018.6 1018.1 0.0
26/08:30pm 17.2 12.5 -4.7 22 8.6 SSE 11 13 6 7 1018.2 1017.6 0.0
26/08:00pm 18.4 13.8 -4.3 21 9.1 SSE 11 13 6 7 1017.9 1017.3 0.0
26/07:30pm 18.8 14.8 -5.3 19 9.5 SE 7 7 4 4 1017.5 1017.0 0.0
26/07:00pm 20.7 16.4 -5.2 17 10.5 SSE 9 9 5 5 1017.0 1016.5 0.0
26/06:30pm 22.4 18.4 -5.5 15 11.4 SSE 7 9 4 5 1016.5 1016.0 0.0
26/06:00pm 25.0 20.2 -6.3 12 12.9 SSE 11 17 6 9 1016.2 1015.7 0.0
26/05:30pm 26.8 20.5 -6.1 11 13.9 SSE 19 26 10 14 1015.7 1015.2 0.0
26/05:00pm 27.5 21.1 -6.8 10 14.3 SSE 19 26 10 14 1015.7 1015.2 0.0
26/04:30pm 27.9 21.9 -6.5 10 14.5 S 17 24 9 13 1015.7 1015.2 0.0
26/04:00pm 28.2 21.9 -6.3 10 14.6 S 19 26 10 14 1015.7 1015.2 0.0
26/03:30pm 28.2 22.1 -7.6 9 14.9 SSE 17 24 9 13 1015.8 1015.3 0.0
26/03:00pm 28.6 22.0 -7.3 9 15.0 S 20 28 11 15 1016.1 1015.6 0.0
26/02:30pm 28.5 22.0 -7.4 9 15.0 S 19 32 10 17 1016.4 1015.9 0.0
26/02:00pm 28.4 21.9 -7.5 9 14.9 SSE 19 28 10 15 1016.7 1016.2 0.0
26/01:30pm 27.7 21.1 -6.6 10 14.4 SSE 20 30 11 16 1017.1 1016.6 0.0
26/01:00pm 27.8 21.4 -5.3 11 14.2 SSE 20 32 11 17 1017.7 1017.2 0.0
26/12:30pm 26.5 19.8 -4.1 13 13.3 SSE 22 32 12 17 1018.4 1017.8 0.0
26/12:00pm 25.9 19.8 -2.7 15 12.7 SSE 20 32 11 17 1018.9 1018.4 0.0
26/11:30am 25.4 19.5 -0.6 18 12.0 SE 20 32 11 17 1019.2 1018.7 0.0
26/11:00am 23.9 18.2 -0.4 20 11.1 SE 19 28 10 15 1019.6 1019.1 0.0
26/10:30am 22.6 17.0 -0.2 22 10.3 SE 19 24 10 13 1020.0 1019.5 0.0
26/10:00am 21.0 16.2 0.2 25 9.4 SE 15 20 8 11 1020.3 1019.8 0.0
26/09:30am 19.4 14.2 0.4 28 8.5 SE 17 20 9 11 1020.3 1019.8 0.0
26/09:00am 17.9 13.1 0.1 30 7.8 SE 15 20 8 11 1020.3 1019.8 0.0
26/08:30am 15.7 12.3 -0.5 33 6.9 SSE 7 11 4 6 1020.1 1019.6 0.0
26/08:00am 12.4 9.1 -1.1 39 5.5 SSE 6 7 3 4 1019.9 1019.4 0.0
26/07:30am 10.4 6.5 -1.3 44 4.6 S 9 11 5 6 1019.4 1018.9 0.0
26/07:00am 10.6 6.7 -1.4 43 4.7 SSE 9 9 5 5 1019.0 1018.5 0.0
26/06:30am 11.1 7.6 -1.3 42 4.9 SSE 7 9 4 5 1018.8 1018.3 0.0
26/06:00am 11.3 7.4 -1.8 40 5.2 SSE 9 9 5 5 1018.6 1018.1 0.0
26/05:30am 11.2 7.2 -1.9 40 5.2 SE 9 9 5 5 1018.3 1017.7 0.0
26/05:00am 11.3 7.6 -2.5 38 5.3 SE 7 9 4 5 1018.3 1017.7 0.0
26/04:30am 11.7 7.7 -2.1 38 5.4 SE 9 9 5 5 1018.4 1017.8 0.0
26/04:00am 12.1 8.5 -1.8 38 5.5 SE 7 9 4 5 1018.5 1017.9 0.0
26/03:30am 12.0 8.5 -1.2 40 5.3 SE 7 7 4 4 1018.7 1018.2 0.0
26/03:00am 13.2 9.4 -0.4 39 5.6 SE 9 9 5 5 1018.7 1018.2 0.0
26/02:30am 12.5 9.0 -1.1 39 5.5 ESE 7 7 4 4 1019.0 1018.5 0.0
26/02:00am 13.3 10.1 -0.3 39 5.7 SE 6 7 3 4 1019.1 1018.6 0.0
26/01:30am 13.4 10.2 -0.6 38 5.8 SE 6 7 3 4 1019.2 1018.7 0.0
26/01:00am 14.0 10.6 -0.8 36 6.1 SE 7 9 4 5 1019.3 1018.8 0.0
26/12:30am 14.0 10.1 -1.2 35 6.3 SE 9 11 5 6 1019.4 1018.9 0.0
26/12:00am 15.1 11.9 -0.2 35 6.5 SE 6 7 3 4 1019.5 1019.0 0.0
 
Date/Time
EST
Temp
°C
App
Temp
°C
Dew
Point
°C
Rel
Hum
%
Delta-T
°C
Wind Press
QNH
hPa
Press
MSL
hPa
Rain since
9am
mm
Dir  Spd
km/h
Gust
km/h
Spd
kts
Gust
kts
25/11:30pm 14.9 11.5 -0.8 34 6.6 SE 7 7 4 4 1019.6 1019.1 0.0
25/11:00pm 15.2 11.8 -0.9 33 6.7 SE 7 7 4 4 1019.7 1019.2 0.0
25/10:30pm 16.5 13.1 -0.7 31 7.3 SE 7 7 4 4 1019.6 1019.1 0.0
25/10:00pm 18.2 14.2 0.4 30 7.9 SSE 11 13 6 7 1019.5 1019.0 0.0
25/09:30pm 18.7 14.6 -0.2 28 8.3 SSE 11 13 6 7 1019.4 1018.9 0.0
25/09:00pm 19.7 15.7 0.2 27 8.7 SSE 11 11 6 6 1019.2 1018.7 0.0
25/08:30pm 21.4 17.3 0.0 24 9.7 SSE 11 13 6 7 1018.8 1018.3 0.0
25/08:00pm 22.7 18.4 1.1 24 10.0 SSE 13 15 7 8 1018.5 1017.9 0.0
25/07:30pm 22.4 18.5 0.9 24 9.9 S 11 13 6 7 1018.2 1017.6 0.0
25/07:00pm 24.3 20.0 1.2 22 10.9 SSE 13 15 7 8 1017.9 1017.3 0.0
25/06:30pm 25.9 21.6 1.2 20 11.8 SSE 13 17 7 9 1017.4 1016.9 0.0
25/06:00pm 28.1 23.8 0.8 17 13.1 SSE 13 20 7 11 1017.0 1016.5 0.0
25/05:30pm 29.8 25.3 -0.5 14 14.4 SE 13 26 7 14 1016.7 1016.2 0.0
25/05:00pm 30.5 25.5 -1.0 13 14.9 SE 15 24 8 13 1016.4 1015.9 0.0
25/04:30pm 31.1 26.0 0.5 14 15.0 SE 17 28 9 15 1016.3 1015.8 0.0
25/04:00pm 31.3 26.6 0.6 14 15.0 ESE 15 24 8 13 1016.3 1015.8 0.0
25/03:30pm 31.2 25.5 0.6 14 15.0 SE 20 28 11 15 1016.4 1015.9 0.0
25/03:00pm 31.0 25.6 1.4 15 14.7 ESE 19 30 10 16 1016.6 1016.1 0.0
25/02:30pm 31.3 26.7 1.6 15 14.8 SE 15 24 8 13 1017.0 1016.5 0.0
25/02:00pm 30.5 25.3 2.7 17 14.0 SSE 19 26 10 14 1017.5 1017.0 0.0
25/01:30pm 31.1 26.8 3.2 17 14.3 SE 15 26 8 14 1018.3 1017.7 0.0
25/01:00pm 30.4 25.7 3.4 18 13.8 SE 17 26 9 14 1018.9 1018.4 0.0
25/12:30pm 29.3 24.1 2.5 18 13.4 ESE 19 28 10 15 1019.5 1019.0 0.0
25/12:00pm 28.0 22.6 2.2 19 12.7 SE 20 30 11 16 1020.0 1019.5 0.0
25/11:30am 27.4 22.1 1.8 19 12.5 SE 19 24 10 13 1020.3 1019.8 0.0
25/11:00am 25.6 20.2 1.0 20 11.6 SE 19 28 10 15 1020.9 1020.4 0.0
25/10:30am 24.1 18.4 0.4 21 11.0 SE 20 30 11 16 1021.2 1020.7 0.0
25/10:00am 22.6 17.4 0.4 23 10.2 SE 17 22 9 12 1021.3 1020.8 0.0
25/09:30am 20.9 15.7 0.2 25 9.3 SE 17 24 9 13 1021.1 1020.6 0.0
25/09:00am 19.0 13.8 0.1 28 8.3 SE 17 22 9 12 1020.8 1020.3 0.0
25/08:30am 17.2 12.3 -0.5 30 7.6 SSE 15 19 8 10 1020.6 1020.1 0.0
25/08:00am 14.1 10.3 -0.4 37 6.1 SSE 9 13 5 7 1020.4 1019.9 0.0
25/07:30am 12.1 8.7 -0.7 41 5.2 S 7 9 4 5 1020.1 1019.6 0.0
25/07:00am 13.4 9.3 -0.3 39 5.7 S 11 13 6 7 1019.7 1019.2 0.0
25/06:30am 13.9 9.9 0.2 39 5.8 SSE 11 15 6 8 1019.5 1019.0 0.0
25/06:00am 12.7 8.6 0.1 42 5.3 SSE 11 11 6 6 1019.3 1018.8 0.0
25/05:30am 13.8 10.2 0.5 40 5.7 SSE 9 11 5 6 1019.2 1018.7 0.0
25/05:00am 14.3 10.6 0.2 38 6.0 SE 9 11 5 6 1019.2 1018.7 0.0
25/04:30am 15.5 11.9 0.5 36 6.5 SSE 9 11 5 6 1019.1 1018.6 0.0
25/04:00am 15.8 11.8 0.4 35 6.7 SE 11 11 6 6 1019.1 1018.6 0.0
25/03:30am 17.0 13.0 0.6 33 7.2 SSE 11 13 6 7 1019.1 1018.6 0.0
25/03:00am 18.5 14.2 1.1 31 7.8 SE 13 15 7 8 1019.3 1018.8 0.0
25/02:30am 19.5 14.8 1.0 29 8.4 SSE 15 20 8 11 1019.4 1018.9 0.0
25/02:00am 19.8 15.5 1.3 29 8.4 SE 13 20 7 11 1019.6 1019.1 0.0
25/01:30am 19.7 15.5 1.7 30 8.3 SE 13 17 7 9 1019.8 1019.3 0.0
25/01:00am 18.6 14.8 1.6 32 7.7 SSE 11 13 6 7 1019.6 1019.1 0.0
25/12:30am 19.7 15.9 1.7 30 8.3 SSE 11 15 6 8 1019.8 1019.3 0.0
25/12:00am 20.9 16.8 2.2 29 8.7 SSE 13 19 7 10 1019.9 1019.4 0.0
 
Date/Time
EST
Temp
°C
App
Temp
°C
Dew
Point
°C
Rel
Hum
%
Delta-T
°C
Wind Press
QNH
hPa
Press
MSL
hPa
Rain since
9am
mm
Dir  Spd
km/h
Gust
km/h
Spd
kts
Gust
kts
24/11:30pm 20.4 16.3 2.3 30 8.5 SSE 13 17 7 9 1019.9 1019.4 0.0
24/11:00pm 20.2 16.5 2.5 31 8.3 SSE 11 13 6 7 1020.0 1019.5 0.0
24/10:30pm 21.1 17.0 2.4 29 8.8 SSE 13 17 7 9 1019.8 1019.3 0.0
24/10:00pm 22.6 17.8 2.7 27 9.5 SSE 17 24 9 13 1019.7 1019.2 0.0
24/09:30pm 23.3 18.3 3.8 28 9.6 SSE 19 26 10 14 1019.7 1019.2 0.0
24/09:00pm 23.6 18.7 4.0 28 9.7 S 19 24 10 13 1019.5 1019.0 0.0
24/08:30pm 24.0 19.7 5.4 30 9.5 S 17 22 9 12 1019.3 1018.8 0.0
24/08:00pm 24.4 20.6 5.7 30 9.6 S 15 20 8 11 1018.9 1018.4 0.0
24/07:30pm 24.8 21.5 6.5 31 9.6 S 13 17 7 9 1018.6 1018.1 0.0
24/07:00pm 25.3 22.0 6.5 30 9.8 S 13 17 7 9 1018.2 1017.6 0.0
24/06:30pm 26.4 23.1 6.4 28 10.5 SSE 13 15 7 8 1017.9 1017.3 0.0
24/06:00pm 28.6 24.2 6.7 25 11.7 SSE 19 24 10 13 1017.3 1016.8 0.0

Other Formats:

Comma delimited format used in spreadsheet applications
http://www.bom.gov.au/fwo/IDQ60801/IDQ60801.94344.axf

JavaScript Object Notation format (JSON) in row-major order
http://www.bom.gov.au/fwo/IDQ60801/IDQ60801.94344.json